• Join FlightAware (Why Join?)
  • Login
  • US Flag 
05:54AM EDT


 

Airport Tracker/Info


-or-


 

Live Flight TrackerFlight Track Log ✈ UAL3756 ✈ 20-Apr-2013 ✈ KMIA - KORD

Flight Track Log - Related Links

Times and Time Zones

All times are in EDT time to prevent confusion due to time zone crossing. See the UAL3756 flight status page for this flight to view local times or setup timezone preferences in your user account.

Time Position Orientation Groundspeed Altitude Reporting Facility
EDT Latitude Longitude Course Direction KTS MPH feet Rate Location/Type
11:56AM 25.7847 -80.3181 286° West 195 224 800  Level Miami Center
11:57AM 25.7961 -80.3622 286° West 203 234 2,000 1,380 Climbing Miami Center
11:58AM 25.8100 -80.3878 301° West 230 265 2,400 1,920 Climbing Miami Center
11:59AM 25.8231 -80.4575 282° West 243 280 4,700 2,340 Climbing Miami Center
12:00PM 25.8822 -80.5078 323° Northwest 243 280 7,100 2,400 Climbing Miami Center
12:01PM 25.9544 -80.5517 331° Northwest 260 299 9,600 2,400 Climbing Miami Center
12:02PM 26.0242 -80.5953 331° Northwest 281 323 11,900 2,220 Climbing Miami Center
12:03PM 26.0961 -80.6439 329° Northwest 291 335 14,100 1,980 Climbing Miami Center
12:04PM 26.1614 -80.7083 318° Northwest 301 346 15,900 1,620 Climbing Miami Center
12:05PM 26.2264 -80.7775 316° Northwest 315 362 17,400 1,800 Climbing Miami Center
12:06PM 26.2975 -80.8447 320° Northwest 327 376 19,500 1,620 Climbing Miami Center
12:07PM 26.3797 -80.8986 330° Northwest 333 383 20,700 1,020 Climbing Miami Center
12:08PM 26.4678 -80.9572 329° Northwest 355 409 21,600 900 Climbing Miami Center
12:09PM 26.5600 -81.0186 329° Northwest 376 433 22,600 960 Climbing Miami Center
12:10PM 26.6542 -81.0847 328° Northwest 392 451 23,600 1,020 Climbing Miami Center
12:11PM 26.7442 -81.1461 329° Northwest 408 470 24,700 1,140 Climbing Miami Center
12:12PM 26.8444 -81.2172 328° Northwest 413 475 25,900 1,200 Climbing Miami Center
12:13PM 26.9428 -81.2814 330° Northwest 418 481 27,100 900 Climbing Miami Center
12:14PM 27.0428 -81.3528 328° Northwest 418 481 27,800 780 Climbing Miami Center
12:15PM 27.1531 -81.4294 328° Northwest 423 487 28,700 840 Climbing Miami Center
12:16PM 27.2553 -81.5011 328° Northwest 428 493 29,500 900 Climbing Miami Center
12:17PM 27.3511 -81.5681 328° Northwest 433 498 30,500 900 Climbing Miami Center
12:18PM 27.4656 -81.6453 329° Northwest 433 498 31,400 840 Climbing Miami Center
12:19PM 27.5694 -81.7200 327° Northwest 438 504 32,200 900 Climbing Miami Center
12:20PM 27.6714 -81.7922 328° Northwest 438 504 33,300 540 Climbing Miami Center
12:22PM 27.9044 -81.9533 329° Northwest 431 496 34,000 180 Climbing Jacksonville Center
12:23PM 28.0072 -82.0253 328° Northwest 436 502 34,000  Level Jacksonville Center
12:24PM 28.1142 -82.0947 330° Northwest 441 507 34,000  Level Jacksonville Center
12:25PM 28.2189 -82.1600 331° Northwest 436 502 34,000  Level Jacksonville Center
12:26PM 28.3256 -82.2275 331° Northwest 436 502 34,000  Level Jacksonville Center
12:27PM 28.4303 -82.2953 330° Northwest 436 502 34,000  Level Jacksonville Center
12:28PM 28.5350 -82.3656 329° Northwest 431 496 34,000  Level Jacksonville Center
12:29PM 28.6417 -82.4314 332° Northwest 431 496 34,000  Level Jacksonville Center
12:30PM 28.7317 -82.4900 330° Northwest 422 486 34,000  Level Jacksonville Center
12:31PM 28.8381 -82.5583 331° Northwest 422 486 34,000  Level Jacksonville Center
12:32PM 28.9447 -82.6244 332° Northwest 427 491 34,000  Level Jacksonville Center
12:33PM 29.0514 -82.6931 331° Northwest 427 491 34,000  Level Jacksonville Center
12:34PM 29.1619 -82.7642 331° Northwest 438 504 34,000  Level Jacksonville Center
12:35PM 29.2706 -82.8356 330° Northwest 443 510 34,000  Level Jacksonville Center
12:36PM 29.3833 -82.9069 331° Northwest 448 516 34,000  Level Jacksonville Center
12:37PM 29.4939 -82.9856 328° Northwest 455 524 34,000  Level Jacksonville Center
12:38PM 29.6089 -83.0575 331° Northwest 465 535 34,000  Level Jacksonville Center
12:39PM 29.7403 -83.1222 337° Northwest 459 528 34,000  Level Jacksonville Center
12:40PM 29.8528 -83.1681 341° North 472 543 34,000  Level Jacksonville Center
12:41PM 29.9758 -83.2258 338° Northwest 472 543 34,000  Level Jacksonville Center
12:42PM 30.1114 -83.2864 339° North 472 543 34,000  Level Jacksonville Center
12:43PM 30.2344 -83.3422 339° North 472 543 34,000  Level Jacksonville Center
12:44PM 30.3575 -83.4006 338° Northwest 472 543 34,000  Level Jacksonville Center
12:45PM 30.4803 -83.4589 338° Northwest 472 543 34,000  Level Jacksonville Center
12:46PM 30.6053 -83.5178 338° Northwest 472 543 34,000  Level Jacksonville Center
12:47PM 30.7261 -83.5742 338° Northwest 472 543 34,000  Level Jacksonville Center
12:48PM 30.8469 -83.6356 336° Northwest 472 543 34,000  Level Jacksonville Center
12:49PM 30.9717 -83.6944 338° Northwest 472 543 34,000  Level Jacksonville Center
12:50PM 31.0967 -83.7514 339° North 472 543 34,000  Level Jacksonville Center
12:51PM 31.2194 -83.8133 337° Northwest 472 543 34,000  Level Jacksonville Center
12:53PM 31.5003 -83.9489 338° Northwest 493 567 34,000  Level Atlanta Center
12:54PM 31.6361 -83.9875 346° North 493 567 34,000  Level Atlanta Center
12:55PM 31.7906 -84.0217 349° North 499 574 34,000  Level Atlanta Center
12:56PM 31.9303 -84.0511 350° North 505 581 34,000  Level Atlanta Center
12:57PM 32.0681 -84.0806 350° North 505 581 34,000  Level Atlanta Center
12:58PM 32.2100 -84.1125 349° North 505 581 34,000  Level Atlanta Center
12:59PM 32.3478 -84.1444 349° North 505 581 34,000  Level Atlanta Center
01:00PM 32.4875 -84.1767 349° North 505 581 34,000  Level Atlanta Center
01:01PM 32.6272 -84.2067 350° North 505 581 34,000  Level Atlanta Center
01:02PM 32.7672 -84.2389 349° North 505 581 34,000  Level Atlanta Center
01:03PM 32.9047 -84.2739 348° North 505 581 34,000  Level Atlanta Center
01:04PM 33.0406 -84.3014 350° North 505 581 34,000  Level Atlanta Center
01:05PM 33.1594 -84.3292 349° North 500 575 34,000  Level Atlanta Center
01:06PM 33.2950 -84.3594 349° North 495 570 34,000  Level Atlanta Center
01:07PM 33.4264 -84.3897 349° North 484 557 34,000  Level Atlanta Center
01:08PM 33.5600 -84.4203 349° North 484 557 34,000  Level Atlanta Center
01:09PM 33.6997 -84.4458 351° North 487 560 34,000  Level Atlanta Center
01:10PM 33.8228 -84.4614 354° North 487 560 34,000  Level Atlanta Center
01:11PM 33.9583 -84.4772 354° North 482 555 34,000  Level Atlanta Center
01:12PM 34.0919 -84.4928 354° North 480 552 34,000  Level Atlanta Center
01:13PM 34.2317 -84.5086 355° North 495 570 34,000  Level Atlanta Center
01:14PM 34.3653 -84.5244 354° North 484 557 34,000  Level Atlanta Center
01:15PM 34.4986 -84.5403 354° North 473 544 34,000  Level Atlanta Center
01:16PM 34.6322 -84.5564 354° North 473 544 34,000  Level Atlanta Center
01:17PM 34.7697 -84.5772 353° North 467 537 34,000  Level Atlanta Center
01:18PM 34.8992 -84.5933 354° North 467 537 34,000  Level Atlanta Center
01:19PM 35.0306 -84.6069 355° North 461 531 34,000  Level Atlanta Center
01:20PM 35.1597 -84.6256 353° North 466 536 34,000  Level Atlanta Center
01:21PM 35.2892 -84.6392 355° North 466 536 34,000  Level Atlanta Center
01:22PM 35.4183 -84.6556 354° North 466 536 34,000  Level Atlanta Center
01:23PM 35.5478 -84.6717 354° North 466 536 34,000  Level Atlanta Center
01:24PM 35.6789 -84.6881 354° North 466 536 34,000  Level Atlanta Center
01:26PM 35.8797 -84.7117 355° North 473 544 34,000  Level Indianapolis Center
01:27PM 36.0333 -84.7311 354° North 472 543 34,000  Level Indianapolis Center
01:28PM 36.1619 -84.7475 354° North 469 540 34,000  Level Indianapolis Center
01:29PM 36.2881 -84.7711 351° North 461 531 34,000  Level Indianapolis Center
01:30PM 36.4103 -84.8083 346° North 452 520 34,000  Level Indianapolis Center
01:31PM 36.5328 -84.8425 347° North 453 521 34,000  Level Indianapolis Center
01:32PM 36.6589 -84.8536 356° North 454 522 34,000  Level Indianapolis Center
01:33PM 36.7894 -84.8461 North 466 536 34,000  Level Indianapolis Center
01:34PM 36.9186 -84.8356 North 466 536 34,000  Level Indianapolis Center
01:35PM 37.0697 -84.8253 North 464 534 34,000  Level Indianapolis Center
01:36PM 37.1994 -84.8142 North 464 534 34,000  Level Indianapolis Center
01:37PM 37.3286 -84.8056 North 463 533 34,000  Level Indianapolis Center
01:38PM 37.4578 -84.7947 North 462 532 34,000  Level Indianapolis Center
01:39PM 37.5825 -84.7853 North 451 519 34,000  Level Indianapolis Center
01:40PM 37.7061 -84.7764 North 446 513 34,000  Level Indianapolis Center
01:41PM 37.8306 -84.7678 North 442 509 34,000  Level Indianapolis Center
01:42PM 37.9514 -84.7575 North 438 504 34,000  Level Indianapolis Center
01:43PM 38.0739 -84.7489 North 438 504 34,000  Level Indianapolis Center
01:44PM 38.2164 -84.7414 North 438 504 34,000  Level Indianapolis Center
01:45PM 38.3281 -84.7831 344° North 419 482 34,000  Level Indianapolis Center
01:46PM 38.4361 -84.8264 343° North 408 470 34,000  Level Indianapolis Center
01:47PM 38.5458 -84.8700 343° North 410 472 34,000  Level Indianapolis Center
01:48PM 38.6542 -84.9133 343° North 410 472 34,000  Level Indianapolis Center
01:49PM 38.7636 -84.9583 342° North 410 472 34,000  Level Indianapolis Center
01:50PM 38.8728 -85.0019 343° North 411 473 34,000 -60 Level Indianapolis Center
01:51PM 38.9836 -85.0486 342° North 417 480 33,900 -540 Descending Indianapolis Center
01:52PM 39.0953 -85.0928 343° North 419 482 32,900 -1,140 Descending Indianapolis Center
01:53PM 39.2214 -85.1447 342° North 411 473 31,600 -1,140 Descending Indianapolis Center
01:54PM 39.3297 -85.1900 342° North 408 470 30,600 -840 Descending Indianapolis Center
01:56PM 39.4364 -85.2344 342° North 403 464 30,000 -300 Descending Indianapolis Center
01:57PM 39.5450 -85.2789 342° North 403 464 30,000  Level Indianapolis Center
01:58PM 39.6511 -85.3231 342° North 398 458 30,000  Level Indianapolis Center
01:59PM 39.7536 -85.3658 342° North 387 445 30,000 -540 Level Indianapolis Center
02:00PM 39.8572 -85.4094 342° North 387 445 29,000 -1,020 Descending Indianapolis Center
02:01PM 39.9678 -85.4556 342° North 406 467 28,000 -1,020 Descending Indianapolis Center
02:02PM 40.0794 -85.5036 342° North 416 479 27,000 -1,020 Descending Indianapolis Center
02:03PM 40.1864 -85.5469 343° North 422 486 26,000 -780 Descending Chicago Center
02:04PM 40.2964 -85.5947 342° North 418 481 25,500 -840 Descending Chicago Center
02:05PM 40.4228 -85.6475 342° North 401 461 24,300 -840 Descending Chicago Center
02:06PM 40.5225 -85.6914 342° North 384 442 23,900 -720 Descending Chicago Center
02:07PM 40.6200 -85.7358 341° North 373 429 22,900 -900 Descending Chicago Center
02:08PM 40.7150 -85.7881 337° Northwest 368 423 22,100 -480 Descending Chicago Center
02:09PM 40.7867 -85.8736 318° Northwest 348 400 22,000 -60 Descending Chicago Center
02:10PM 40.8597 -85.9614 318° Northwest 353 406 22,000  Level Chicago Center
02:11PM 40.9319 -86.0472 318° Northwest 351 404 22,000  Level Chicago Center
02:12PM 41.0175 -86.1503 318° Northwest 347 399 22,000 -300 Level Chicago Center
02:13PM 41.0878 -86.2356 318° Northwest 345 397 21,400 -900 Descending Chicago Center
02:14PM 41.1578 -86.3197 318° Northwest 341 392 20,200 -1,440 Descending Chicago Center
02:15PM 41.2247 -86.4014 317° Northwest 330 380 18,500 -1,500 Descending Chicago Center
02:16PM 41.2911 -86.4817 318° Northwest 324 373 17,200 -1,260 Descending Chicago Center
02:17PM 41.3631 -86.5469 326° Northwest 316 364 15,900 -1,260 Descending Chicago Center
02:18PM 41.4375 -86.6108 327° Northwest 316 364 14,700 -1,080 Descending Chicago Center
02:19PM 41.5128 -86.6736 328° Northwest 318 366 13,700 -1,140 Descending Chicago Center
02:20PM 41.5986 -86.7461 328° Northwest 316 364 12,400 -960 Descending Chicago Center
02:21PM 41.6750 -86.7967 334° Northwest 315 362 11,800 -720 Descending Chicago Center
02:22PM 41.7608 -86.8081 354° North 311 358 11,000 -420 Descending Chicago Center
02:23PM 41.8475 -86.8264 351° North 317 365 11,000  Level Chicago Center
02:24PM 41.9056 -86.9303 307° West 300 345 11,000  Level Chicago Center
02:25PM 41.9383 -87.0325 293° West 300 345 11,000 -360 Level Chicago Center
02:26PM 41.9694 -87.1231 295° West 269 310 10,300 -1,080 Descending Chicago Center
02:27PM 41.9825 -87.2083 282° West 240 276 8,800 -1,500 Descending Chicago Center
02:28PM 41.9828 -87.2967 270° West 240 276 7,300 -1,020 Descending Chicago Center
02:29PM 41.9833 -87.3833 271° West 247 284 7,000 -180 Descending Chicago TRACON
02:30PM 41.9833 -87.4667 270° West 241 277 7,000 -600 Level Chicago TRACON
02:31PM 41.9833 -87.5500 270° West 218 251 5,900 -1,200 Descending Chicago TRACON
02:32PM 41.9833 -87.6333 270° West 190 219 4,700 -1,140 Descending Chicago TRACON
02:33PM 41.9833 -87.6833 270° West 167 192 3,800 -960 Descending Chicago TRACON
02:34PM 41.9833 -87.7500 270° West 150 173 2,900 -900 Descending Chicago TRACON
02:35PM 41.9833 -87.8000 270° West 137 158 2,100 -780 Descending Chicago TRACON
02:36PM 41.9833 -87.8500 270° West 124 143 1,400 -720 Descending Chicago TRACON
02:39PM 41.9667 -87.9000 270° West  Level FlightAware Approximate